Shinkyokuhoumaru — JD2017 — position and weather

sailwx.info

Track history (hours):
 
Tides and Currents Weather Stations Pressure Air Temp Water Temp Dewpoint Dewpoint Depression Visibility Wind Speed Wind Dir Waves Ship Positions

Shinkyokuhoumaru

Last reported at 2018-Jun-17 07:19 UTC. Time now 2018-Jun-18 13:33 UTC.
Position N 34°31' E 135°24'.

Length 52 m; draft 3 m.

Type: Tanker. MMSI: 430253169.

Date/timePositionNaut miles runAvg speedWind from/ knotsBaromVisibWave heightAir tempDewpointWater temp
2018-Jun-17 07:19N 34°31' E 135°24'1 1.6
2018-Jun-17 06:58N 34°31' E 135°24'511.3
2018-Jun-17 06:30N 34°35' E 135°20'4 8.1
2018-Jun-17 05:58N 34°39' E 135°22'0 0.0
2018-Jun-17 05:28N 34°39' E 135°22'0 0.0
2018-Jun-17 04:58N 34°39' E 135°22'0 0.0
2018-Jun-17 04:22N 34°39' E 135°22'0 0.0
2018-Jun-17 03:58N 34°39' E 135°22'2 4.8
2018-Jun-17 03:30N 34°39' E 135°25'0 0.5
2018-Jun-17 02:55N 34°40' E 135°25'0 0.0
2018-Jun-17 02:25N 34°40' E 135°25'0 0.0
2018-Jun-17 00:31N 34°40' E 135°25'0 0.0
2018-Jun-17 00:25N 34°40' E 135°25'0 0.0
2018-Jun-16 23:49N 34°40' E 135°25'0 0.0
2018-Jun-16 23:30N 34°40' E 135°25'2 4.4
2018-Jun-16 22:59N 34°40' E 135°22'1 0.6
2018-Jun-16 22:00N 34°39' E 135°22'0 0.0
2018-Jun-16 21:18N 34°39' E 135°22'0 0.0
2018-Jun-16 21:00N 34°39' E 135°22'0 0.0
2018-Jun-16 20:24N 34°39' E 135°22'0 0.0
2018-Jun-16 19:48N 34°39' E 135°22'0 0.0
2018-Jun-16 19:24N 34°39' E 135°22'0 0.0
2018-Jun-16 19:00N 34°39' E 135°22'0 0.0
2018-Jun-16 18:30N 34°39' E 135°22'0 0.0
2018-Jun-16 18:00N 34°39' E 135°22'0 0.0
2018-Jun-16 17:30N 34°39' E 135°22'0 0.0
2018-Jun-16 17:00N 34°39' E 135°22'0 0.0
2018-Jun-16 16:30N 34°39' E 135°22'0 0.0
2018-Jun-16 16:00N 34°39' E 135°22'4 8.9
2018-Jun-16 15:30N 34°36' E 135°18'510.9
2018-Jun-16 15:00N 34°31' E 135°15'611.4
2018-Jun-16 14:30N 34°27' E 135°11'611.8
2018-Jun-16 14:00N 34°22' E 135°06'611.7
2018-Jun-16 13:30N 34°17' E 135°03'612.1
2018-Jun-16 13:00N 34°11' E 135°02'612.0
2018-Jun-16 12:30N 34°05' E 135°02'612.2
2018-Jun-16 12:00N 33°58' E 135°02'245 9.7
2018-Jun-15 10:45N 35°12' E 139°46'411.2
2018-Jun-15 10:21N 35°16' E 139°46'411.4
2018-Jun-15 10:00N 35°20' E 139°43'510.8
2018-Jun-15 09:31N 35°25' E 139°43'611.5
2018-Jun-15 09:01N 35°29' E 139°48'3 5.7
2018-Jun-15 08:30N 35°32' E 139°46'0 0.0
2018-Jun-15 07:58N 35°32' E 139°46'0 0.0
2018-Jun-15 07:28N 35°32' E 139°46'0 0.0
2018-Jun-15 06:58N 35°32' E 139°46'0 0.0
2018-Jun-15 06:10N 35°32' E 139°46'0 0.0
2018-Jun-15 05:52N 35°32' E 139°46'0 0.0
2018-Jun-15 05:28N 35°32' E 139°46'0 0.0
2018-Jun-15 04:58N 35°32' E 139°46'0 0.0
2018-Jun-15 04:28N 35°32' E 139°46'0 0.0
2018-Jun-15 03:55N 35°32' E 139°46'0 0.0
2018-Jun-15 03:25N 35°32' E 139°46'0 0.0
2018-Jun-15 02:55N 35°32' E 139°46'0 0.0
2018-Jun-15 02:25N 35°32' E 139°46'0 0.0
2018-Jun-15 01:55N 35°32' E 139°46'0 0.0
2018-Jun-15 01:28N 35°32' E 139°46'0 0.0
2018-Jun-15 00:58N 35°32' E 139°46'0 0.1
2018-Jun-15 00:30N 35°32' E 139°46'3 5.8
2018-Jun-15 00:00N 35°30' E 139°48'1 1.4
2018-Jun-14 23:28N 35°29' E 139°49'0 0.0
2018-Jun-14 22:55N 35°29' E 139°49'0 0.0
2018-Jun-14 22:25N 35°29' E 139°49'0 0.0
2018-Jun-14 21:55N 35°29' E 139°49'0 0.0
2018-Jun-14 21:28N 35°29' E 139°49'0 0.0
2018-Jun-14 20:58N 35°29' E 139°49'0 0.0
2018-Jun-14 20:25N 35°29' E 139°49'0 0.0
2018-Jun-14 19:58N 35°29' E 139°49'0 0.0
2018-Jun-14 19:30N 35°29' E 139°49'5 9.7
2018-Jun-14 19:00N 35°25' E 139°46'611.1
2018-Jun-14 18:30N 35°19' E 139°44'610.9
2018-Jun-14 17:59N 35°14' E 139°47'249 9.8
2018-Jun-13 16:34N 33°50' E 135°03'112.1
2018-Jun-13 16:31N 33°50' E 135°02'611.7
2018-Jun-13 16:00N 33°55' E 134°58'711.3
2018-Jun-13 15:24N 34°00' E 134°53'511.2
2018-Jun-13 14:59N 34°04' E 134°49'611.2
2018-Jun-13 14:28N 34°08' E 134°45'611.9
2018-Jun-13 14:00N 34°13' E 134°41'910.6
2018-Jun-13 13:09N 34°18' E 134°32'210.1
2018-Jun-13 12:59N 34°18' E 134°30'510.2
2018-Jun-13 12:30N 34°21' E 134°24'5 0.2
2018-Jun-12 07:51N 34°25' E 134°22'411.5
2018-Jun-12 07:30N 34°27' E 134°27'611.3
2018-Jun-12 07:00N 34°29' E 134°33'511.1
2018-Jun-12 06:30N 34°31' E 134°39'611.3
2018-Jun-12 06:00N 34°33' E 134°46'510.4
2018-Jun-12 05:30N 34°35' E 134°52'8 8.9
2018-Jun-12 04:34N 34°37' E 135°01'1 7.0
2018-Jun-12 04:26N 34°37' E 135°02'3 7.4
2018-Jun-12 04:00N 34°36' E 135°06'510.9
2018-Jun-12 03:31N 34°37' E 135°13'611.0
2018-Jun-12 03:00N 34°38' E 135°19'510.2
2018-Jun-12 02:30N 34°40' E 135°25'0 0.6
2018-Jun-12 01:45N 34°40' E 135°25'0 0.0
2018-Jun-12 01:27N 34°40' E 135°25'0 0.0
2018-Jun-12 00:57N 34°40' E 135°25'0 0.0
2018-Jun-12 00:27N 34°40' E 135°25'0 0.0
2018-Jun-11 23:51N 34°40' E 135°25'0 0.0
2018-Jun-11 23:26N 34°40' E 135°25'1 2.4
2018-Jun-11 23:01N 34°39' E 135°24'4 8.0
2018-Jun-11 22:30N 34°39' E 135°20'0 0.0
2018-Jun-11 21:59N 34°39' E 135°20'0 0.0
2018-Jun-11 21:29N 34°39' E 135°20'0 0.0
2018-Jun-11 20:59N 34°39' E 135°20'0 0.0
2018-Jun-11 20:29N 34°39' E 135°20'0 0.0
2018-Jun-11 19:59N 34°39' E 135°20'0 0.0
2018-Jun-11 19:29N 34°39' E 135°20'0 0.0
2018-Jun-11 18:59N 34°39' E 135°20'0 0.0
2018-Jun-11 18:17N 34°39' E 135°20'0 0.0
2018-Jun-11 17:59N 34°39' E 135°20'0 0.0
2018-Jun-11 17:29N 34°39' E 135°20'0 0.0
2018-Jun-11 16:53N 34°39' E 135°20'0 0.0
2018-Jun-11 16:29N 34°39' E 135°20'0 0.0
2018-Jun-11 15:59N 34°39' E 135°20'0 0.0
2018-Jun-11 15:29N 34°39' E 135°20'0 0.0
2018-Jun-11 14:59N 34°39' E 135°20'0 0.0
2018-Jun-11 14:28N 34°39' E 135°20'0 0.0
2018-Jun-11 13:58N 34°39' E 135°20'0 0.0
2018-Jun-11 13:28N 34°39' E 135°20'0 0.0
2018-Jun-11 12:58N 34°39' E 135°20'0 0.0
2018-Jun-11 12:22N 34°39' E 135°20'0 0.0
2018-Jun-11 11:58N 34°39' E 135°20'0 0.0
2018-Jun-11 11:28N 34°39' E 135°20'0 0.0
2018-Jun-11 10:58N 34°39' E 135°20'0 0.1
2018-Jun-11 10:28N 34°39' E 135°20'0 0.0
2018-Jun-11 09:52N 34°39' E 135°20'0 0.1
2018-Jun-11 09:10N 34°39' E 135°20'0 0.0
2018-Jun-11 08:58N 34°39' E 135°20'0 0.0
2018-Jun-11 08:22N 34°39' E 135°20'0 0.0
2018-Jun-11 07:58N 34°39' E 135°20'0 0.1
2018-Jun-11 07:30N 34°39' E 135°20'4 7.8
2018-Jun-11 07:00N 34°40' E 135°15'2 4.2
2018-Jun-11 06:29N 34°42' E 135°15'0 0.0
2018-Jun-11 05:58N 34°42' E 135°15'0 0.0
2018-Jun-11 05:29N 34°42' E 135°15'0 0.0
2018-Jun-11 05:00N 34°42' E 135°15'0 0.0
2018-Jun-11 04:30N 34°42' E 135°15'0 0.0
2018-Jun-11 03:57N 34°42' E 135°15'1 1.2
2018-Jun-11 03:30N 34°42' E 135°15'4 8.3
2018-Jun-11 03:00N 34°39' E 135°18'1 1.9
2018-Jun-11 02:27N 34°39' E 135°20'0 0.0
2018-Jun-11 01:57N 34°39' E 135°20'0 0.0
2018-Jun-11 01:27N 34°39' E 135°20'0 0.0
2018-Jun-11 00:51N 34°39' E 135°20'0 0.0
2018-Jun-11 00:27N 34°39' E 135°20'0 0.0
2018-Jun-10 23:57N 34°39' E 135°20'0 0.0
2018-Jun-10 23:21N 34°39' E 135°20'0 0.0
2018-Jun-10 22:57N 34°39' E 135°20'0 0.0
2018-Jun-10 22:27N 34°39' E 135°20'0 0.0
2018-Jun-10 21:57N 34°39' E 135°20'0 0.0
2018-Jun-10 21:21N 34°39' E 135°20'0 0.0
2018-Jun-10 20:57N 34°39' E 135°20'0 0.0
2018-Jun-10 20:15N 34°39' E 135°20'0 0.0
2018-Jun-10 19:57N 34°39' E 135°20'0 0.0
2018-Jun-10 19:20N 34°39' E 135°20'0 0.0
2018-Jun-10 18:56N 34°39' E 135°20'0 0.0
2018-Jun-10 18:20N 34°39' E 135°20'0 0.0
2018-Jun-10 17:56N 34°39' E 135°20'0 0.0
2018-Jun-10 17:26N 34°39' E 135°20'0 0.0
2018-Jun-10 16:50N 34°39' E 135°20'0 0.0
2018-Jun-10 16:20N 34°39' E 135°20'0 0.0
2018-Jun-10 15:56N 34°39' E 135°20'0 0.0
2018-Jun-10 15:20N 34°39' E 135°20'0 0.0
2018-Jun-10 14:56N 34°39' E 135°20'0 0.0
2018-Jun-10 14:26N 34°39' E 135°20'0 0.0
2018-Jun-10 13:26N 34°39' E 135°20'0 0.0
2018-Jun-10 12:56N 34°39' E 135°20'0 0.0
2018-Jun-10 12:26N 34°39' E 135°20'0 0.0
2018-Jun-10 11:56N 34°39' E 135°20'0 0.0
2018-Jun-10 11:26N 34°39' E 135°20'0 0.0
2018-Jun-10 10:56N 34°39' E 135°20'0 0.0
2018-Jun-10 10:26N 34°39' E 135°20'0 0.0
2018-Jun-10 09:56N 34°39' E 135°20'0 0.0
2018-Jun-10 09:14N 34°39' E 135°20'0 0.0
2018-Jun-10 08:56N 34°39' E 135°20'0 0.0
2018-Jun-10 08:14N 34°39' E 135°20'0 0.0
2018-Jun-10 08:00N 34°39' E 135°20'0 0.0
2018-Jun-10 07:20N 34°39' E 135°20'0 0.0
2018-Jun-10 06:56N 34°39' E 135°20'0 0.0
2018-Jun-10 06:26N 34°39' E 135°20'0 0.0
2018-Jun-10 05:50N 34°39' E 135°20'0 0.0
2018-Jun-10 05:26N 34°39' E 135°20'0 0.0
2018-Jun-10 04:56N 34°39' E 135°20'0 0.0
2018-Jun-10 04:26N 34°39' E 135°20'0 0.0
2018-Jun-10 03:56N 34°39' E 135°20'0 0.0
2018-Jun-10 03:26N 34°39' E 135°20'0 0.0
2018-Jun-10 02:50N 34°39' E 135°20'0 0.1
2018-Jun-10 02:30N 34°39' E 135°20'5 9.0
2018-Jun-10 02:00N 34°35' E 135°17'510.7
2018-Jun-10 01:30N 34°30' E 135°13'510.5
2018-Jun-10 01:00N 34°26' E 135°10'510.2
2018-Jun-10 00:30N 34°22' E 135°06'5 9.8
2018-Jun-10 00:00N 34°17' E 135°04'5 9.2
2018-Jun-09 23:30N 34°13' E 135°02'510.7
2018-Jun-09 23:00N 34°08' E 135°02'510.8
2018-Jun-09 22:30N 34°02' E 135°02'510.9
2018-Jun-09 22:00N 33°57' E 135°03'510.2
2018-Jun-09 21:29N 33°51' E 135°03'  
2018-Jun-07 08:08N 35°16' E 139°46'111.6
2018-Jun-07 08:01N 35°17' E 139°44'510.8
2018-Jun-07 07:30N 35°23' E 139°42'  
Track history (hours):
 
Tides and Currents Weather Stations Pressure Air Temp Water Temp Dewpoint Dewpoint Depression Visibility Wind Speed Wind Dir Waves Ship Positions

Shinkyokuhoumaru

Last reported at 2018-Jun-17 07:19 UTC. Time now 2018-Jun-18 13:33 UTC.
Position N 34°31' E 135°24'.

Length 52 m; draft 3 m.

Type: Tanker. MMSI: 430253169.

Date/timePositionNaut miles runAvg speedWind from/ knotsBaromVisibWave heightAir tempDewpointWater temp
2018-Jun-17 07:19N 34°31' E 135°24'1 1.6
2018-Jun-17 06:58N 34°31' E 135°24'511.3
2018-Jun-17 06:30N 34°35' E 135°20'4 8.1
2018-Jun-17 05:58N 34°39' E 135°22'0 0.0
2018-Jun-17 05:28N 34°39' E 135°22'0 0.0
2018-Jun-17 04:58N 34°39' E 135°22'0 0.0
2018-Jun-17 04:22N 34°39' E 135°22'0 0.0
2018-Jun-17 03:58N 34°39' E 135°22'2 4.8
2018-Jun-17 03:30N 34°39' E 135°25'0 0.5
2018-Jun-17 02:55N 34°40' E 135°25'0 0.0
2018-Jun-17 02:25N 34°40' E 135°25'0 0.0
2018-Jun-17 00:31N 34°40' E 135°25'0 0.0
2018-Jun-17 00:25N 34°40' E 135°25'0 0.0
2018-Jun-16 23:49N 34°40' E 135°25'0 0.0
2018-Jun-16 23:30N 34°40' E 135°25'2 4.4
2018-Jun-16 22:59N 34°40' E 135°22'1 0.6
2018-Jun-16 22:00N 34°39' E 135°22'0 0.0
2018-Jun-16 21:18N 34°39' E 135°22'0 0.0
2018-Jun-16 21:00N 34°39' E 135°22'0 0.0
2018-Jun-16 20:24N 34°39' E 135°22'0 0.0
2018-Jun-16 19:48N 34°39' E 135°22'0 0.0
2018-Jun-16 19:24N 34°39' E 135°22'0 0.0
2018-Jun-16 19:00N 34°39' E 135°22'0 0.0
2018-Jun-16 18:30N 34°39' E 135°22'0 0.0
2018-Jun-16 18:00N 34°39' E 135°22'0 0.0
2018-Jun-16 17:30N 34°39' E 135°22'0 0.0
2018-Jun-16 17:00N 34°39' E 135°22'0 0.0
2018-Jun-16 16:30N 34°39' E 135°22'0 0.0
2018-Jun-16 16:00N 34°39' E 135°22'4 8.9
2018-Jun-16 15:30N 34°36' E 135°18'510.9
2018-Jun-16 15:00N 34°31' E 135°15'611.4
2018-Jun-16 14:30N 34°27' E 135°11'611.8
2018-Jun-16 14:00N 34°22' E 135°06'611.7
2018-Jun-16 13:30N 34°17' E 135°03'612.1
2018-Jun-16 13:00N 34°11' E 135°02'612.0
2018-Jun-16 12:30N 34°05' E 135°02'612.2
2018-Jun-16 12:00N 33°58' E 135°02'245 9.7
2018-Jun-15 10:45N 35°12' E 139°46'411.2
2018-Jun-15 10:21N 35°16' E 139°46'411.4
2018-Jun-15 10:00N 35°20' E 139°43'510.8
2018-Jun-15 09:31N 35°25' E 139°43'611.5
2018-Jun-15 09:01N 35°29' E 139°48'3 5.7
2018-Jun-15 08:30N 35°32' E 139°46'0 0.0
2018-Jun-15 07:58N 35°32' E 139°46'0 0.0
2018-Jun-15 07:28N 35°32' E 139°46'0 0.0
2018-Jun-15 06:58N 35°32' E 139°46'0 0.0
2018-Jun-15 06:10N 35°32' E 139°46'0 0.0
2018-Jun-15 05:52N 35°32' E 139°46'0 0.0
2018-Jun-15 05:28N 35°32' E 139°46'0 0.0
2018-Jun-15 04:58N 35°32' E 139°46'0 0.0
2018-Jun-15 04:28N 35°32' E 139°46'0 0.0
2018-Jun-15 03:55N 35°32' E 139°46'0 0.0
2018-Jun-15 03:25N 35°32' E 139°46'0 0.0
2018-Jun-15 02:55N 35°32' E 139°46'0 0.0
2018-Jun-15 02:25N 35°32' E 139°46'0 0.0
2018-Jun-15 01:55N 35°32' E 139°46'0 0.0
2018-Jun-15 01:28N 35°32' E 139°46'0 0.0
2018-Jun-15 00:58N 35°32' E 139°46'0 0.1
2018-Jun-15 00:30N 35°32' E 139°46'3 5.8
2018-Jun-15 00:00N 35°30' E 139°48'1 1.4
2018-Jun-14 23:28N 35°29' E 139°49'0 0.0
2018-Jun-14 22:55N 35°29' E 139°49'0 0.0
2018-Jun-14 22:25N 35°29' E 139°49'0 0.0
2018-Jun-14 21:55N 35°29' E 139°49'0 0.0
2018-Jun-14 21:28N 35°29' E 139°49'0 0.0
2018-Jun-14 20:58N 35°29' E 139°49'0 0.0
2018-Jun-14 20:25N 35°29' E 139°49'0 0.0
2018-Jun-14 19:58N 35°29' E 139°49'0 0.0
2018-Jun-14 19:30N 35°29' E 139°49'5 9.7
2018-Jun-14 19:00N 35°25' E 139°46'611.1
2018-Jun-14 18:30N 35°19' E 139°44'610.9
2018-Jun-14 17:59N 35°14' E 139°47'249 9.8
2018-Jun-13 16:34N 33°50' E 135°03'112.1
2018-Jun-13 16:31N 33°50' E 135°02'611.7
2018-Jun-13 16:00N 33°55' E 134°58'711.3
2018-Jun-13 15:24N 34°00' E 134°53'511.2
2018-Jun-13 14:59N 34°04' E 134°49'611.2
2018-Jun-13 14:28N 34°08' E 134°45'611.9
2018-Jun-13 14:00N 34°13' E 134°41'910.6
2018-Jun-13 13:09N 34°18' E 134°32'210.1
2018-Jun-13 12:59N 34°18' E 134°30'510.2
2018-Jun-13 12:30N 34°21' E 134°24'5 0.2
2018-Jun-12 07:51N 34°25' E 134°22'411.5
2018-Jun-12 07:30N 34°27' E 134°27'611.3
2018-Jun-12 07:00N 34°29' E 134°33'511.1
2018-Jun-12 06:30N 34°31' E 134°39'611.3
2018-Jun-12 06:00N 34°33' E 134°46'510.4
2018-Jun-12 05:30N 34°35' E 134°52'8 8.9
2018-Jun-12 04:34N 34°37' E 135°01'1 7.0
2018-Jun-12 04:26N 34°37' E 135°02'3 7.4
2018-Jun-12 04:00N 34°36' E 135°06'510.9
2018-Jun-12 03:31N 34°37' E 135°13'611.0
2018-Jun-12 03:00N 34°38' E 135°19'510.2
2018-Jun-12 02:30N 34°40' E 135°25'0 0.6
2018-Jun-12 01:45N 34°40' E 135°25'0 0.0
2018-Jun-12 01:27N 34°40' E 135°25'0 0.0
2018-Jun-12 00:57N 34°40' E 135°25'0 0.0
2018-Jun-12 00:27N 34°40' E 135°25'0 0.0
2018-Jun-11 23:51N 34°40' E 135°25'0 0.0
2018-Jun-11 23:26N 34°40' E 135°25'1 2.4
2018-Jun-11 23:01N 34°39' E 135°24'4 8.0
2018-Jun-11 22:30N 34°39' E 135°20'0 0.0
2018-Jun-11 21:59N 34°39' E 135°20'0 0.0
2018-Jun-11 21:29N 34°39' E 135°20'0 0.0
2018-Jun-11 20:59N 34°39' E 135°20'0 0.0
2018-Jun-11 20:29N 34°39' E 135°20'0 0.0
2018-Jun-11 19:59N 34°39' E 135°20'0 0.0
2018-Jun-11 19:29N 34°39' E 135°20'0 0.0
2018-Jun-11 18:59N 34°39' E 135°20'0 0.0
2018-Jun-11 18:17N 34°39' E 135°20'0 0.0
2018-Jun-11 17:59N 34°39' E 135°20'0 0.0
2018-Jun-11 17:29N 34°39' E 135°20'0 0.0
2018-Jun-11 16:53N 34°39' E 135°20'0 0.0
2018-Jun-11 16:29N 34°39' E 135°20'0 0.0
2018-Jun-11 15:59N 34°39' E 135°20'0 0.0
2018-Jun-11 15:29N 34°39' E 135°20'0 0.0
2018-Jun-11 14:59N 34°39' E 135°20'0 0.0
2018-Jun-11 14:28N 34°39' E 135°20'0 0.0
2018-Jun-11 13:58N 34°39' E 135°20'0 0.0
2018-Jun-11 13:28N 34°39' E 135°20'0 0.0
2018-Jun-11 12:58N 34°39' E 135°20'0 0.0
2018-Jun-11 12:22N 34°39' E 135°20'0 0.0
2018-Jun-11 11:58N 34°39' E 135°20'0 0.0
2018-Jun-11 11:28N 34°39' E 135°20'0 0.0
2018-Jun-11 10:58N 34°39' E 135°20'0 0.1
2018-Jun-11 10:28N 34°39' E 135°20'0 0.0
2018-Jun-11 09:52N 34°39' E 135°20'0 0.1
2018-Jun-11 09:10N 34°39' E 135°20'0 0.0
2018-Jun-11 08:58N 34°39' E 135°20'0 0.0
2018-Jun-11 08:22N 34°39' E 135°20'0 0.0
2018-Jun-11 07:58N 34°39' E 135°20'0 0.1
2018-Jun-11 07:30N 34°39' E 135°20'4 7.8
2018-Jun-11 07:00N 34°40' E 135°15'2 4.2
2018-Jun-11 06:29N 34°42' E 135°15'0 0.0
2018-Jun-11 05:58N 34°42' E 135°15'0 0.0
2018-Jun-11 05:29N 34°42' E 135°15'0 0.0
2018-Jun-11 05:00N 34°42' E 135°15'0 0.0
2018-Jun-11 04:30N 34°42' E 135°15'0 0.0
2018-Jun-11 03:57N 34°42' E 135°15'1 1.2
2018-Jun-11 03:30N 34°42' E 135°15'4 8.3
2018-Jun-11 03:00N 34°39' E 135°18'1 1.9
2018-Jun-11 02:27N 34°39' E 135°20'0 0.0
2018-Jun-11 01:57N 34°39' E 135°20'0 0.0
2018-Jun-11 01:27N 34°39' E 135°20'0 0.0
2018-Jun-11 00:51N 34°39' E 135°20'0 0.0
2018-Jun-11 00:27N 34°39' E 135°20'0 0.0
2018-Jun-10 23:57N 34°39' E 135°20'0 0.0
2018-Jun-10 23:21N 34°39' E 135°20'0 0.0
2018-Jun-10 22:57N 34°39' E 135°20'0 0.0
2018-Jun-10 22:27N 34°39' E 135°20'0 0.0
2018-Jun-10 21:57N 34°39' E 135°20'0 0.0
2018-Jun-10 21:21N 34°39' E 135°20'0 0.0
2018-Jun-10 20:57N 34°39' E 135°20'0 0.0
2018-Jun-10 20:15N 34°39' E 135°20'0 0.0
2018-Jun-10 19:57N 34°39' E 135°20'0 0.0
2018-Jun-10 19:20N 34°39' E 135°20'0 0.0
2018-Jun-10 18:56N 34°39' E 135°20'0 0.0
2018-Jun-10 18:20N 34°39' E 135°20'0 0.0
2018-Jun-10 17:56N 34°39' E 135°20'0 0.0
2018-Jun-10 17:26N 34°39' E 135°20'0 0.0
2018-Jun-10 16:50N 34°39' E 135°20'0 0.0
2018-Jun-10 16:20N 34°39' E 135°20'0 0.0
2018-Jun-10 15:56N 34°39' E 135°20'0 0.0
2018-Jun-10 15:20N 34°39' E 135°20'0 0.0
2018-Jun-10 14:56N 34°39' E 135°20'0 0.0
2018-Jun-10 14:26N 34°39' E 135°20'0 0.0
2018-Jun-10 13:26N 34°39' E 135°20'0 0.0
2018-Jun-10 12:56N 34°39' E 135°20'0 0.0
2018-Jun-10 12:26N 34°39' E 135°20'0 0.0
2018-Jun-10 11:56N 34°39' E 135°20'0 0.0
2018-Jun-10 11:26N 34°39' E 135°20'0 0.0
2018-Jun-10 10:56N 34°39' E 135°20'0 0.0
2018-Jun-10 10:26N 34°39' E 135°20'0 0.0
2018-Jun-10 09:56N 34°39' E 135°20'0 0.0
2018-Jun-10 09:14N 34°39' E 135°20'0 0.0
2018-Jun-10 08:56N 34°39' E 135°20'0 0.0
2018-Jun-10 08:14N 34°39' E 135°20'0 0.0
2018-Jun-10 08:00N 34°39' E 135°20'0 0.0
2018-Jun-10 07:20N 34°39' E 135°20'0 0.0
2018-Jun-10 06:56N 34°39' E 135°20'0 0.0
2018-Jun-10 06:26N 34°39' E 135°20'0 0.0
2018-Jun-10 05:50N 34°39' E 135°20'0 0.0
2018-Jun-10 05:26N 34°39' E 135°20'0 0.0
2018-Jun-10 04:56N 34°39' E 135°20'0 0.0
2018-Jun-10 04:26N 34°39' E 135°20'0 0.0
2018-Jun-10 03:56N 34°39' E 135°20'0 0.0
2018-Jun-10 03:26N 34°39' E 135°20'0 0.0
2018-Jun-10 02:50N 34°39' E 135°20'0 0.1
2018-Jun-10 02:30N 34°39' E 135°20'5 9.0
2018-Jun-10 02:00N 34°35' E 135°17'510.7
2018-Jun-10 01:30N 34°30' E 135°13'510.5
2018-Jun-10 01:00N 34°26' E 135°10'510.2
2018-Jun-10 00:30N 34°22' E 135°06'5 9.8
2018-Jun-10 00:00N 34°17' E 135°04'5 9.2
2018-Jun-09 23:30N 34°13' E 135°02'510.7
2018-Jun-09 23:00N 34°08' E 135°02'510.8
2018-Jun-09 22:30N 34°02' E 135°02'510.9
2018-Jun-09 22:00N 33°57' E 135°03'510.2
2018-Jun-09 21:29N 33°51' E 135°03'  
2018-Jun-07 08:08N 35°16' E 139°46'111.6
2018-Jun-07 08:01N 35°17' E 139°44'510.8
2018-Jun-07 07:30N 35°23' E 139°42'  

Dump ship's entire track history